Impacts TAF Board
For situational awareness. Not to be used for flight planning purposes.
IDs:

KDCA - Washington/National, VA, US

Issued at 1141 UTC 17 Sep 2019
Updated at 1244 UTC 17 Sep 2019
Potential Impact None Slight Moderate High
Time1152Z 17/13Z 17/14Z 17/15Z 17/16Z 17/17Z 17/18Z 17/19Z 17/20Z 17/21Z 17/22Z 17/23Z 18/00Z 18/01Z>>
Type OBS PRVL
  [TEMP]  
PRVL
  [TEMP]  
PRVL PRVL PRVL PRVL PRVL PRVL PRVL PRVL PRVL PRVL PRVL
VIS 10 >6 >6 >6 >6 >6 >6 >6 >6 >6 >6 >6 >6 >6
CIG 13 50
  [15]  
50
  [15]  
50 50 50 50 50 50 50 -- -- -- --
Cover OVC BKN
  [BKN]  
BKN
  [BKN]  
BKN BKN BKN BKN BKN BKN BKN SCT SCT SCT SCT
FltCat MVFR VFR
  [MVFR]  
VFR
  [MVFR]  
VFR VFR VFR VFR VFR VFR VFR VFR VFR VFR VFR
WX -- --
  [--]  
--
  [--]  
-- -- -- -- -- -- -- -- -- -- --
WDir 30 40
[40]
40
[40]
40 50 50 50 50 50 50 50 50 50 50
WSpd 11 12
  [12]  
12
  [12]  
12 8 8 8 8 8 8 7 7 7 7
WGst -- --
  [--]  
--
  [--]  
-- -- -- -- -- -- -- -- -- -- --
Raw TAF
KDCA 171141Z 1712/1818 04012KT P6SM SCT015 BKN050
  TEMPO 1712/1715 BKN015
  FM171600 05008KT P6SM BKN050
  FM172200 05007KT P6SM SCT100
  FM180200 VRB03KT P6SM SKC


Raw METAR
KDCA 171152Z 03011KT 10SM BKN013 OVC055 23/20 A3007 RMK AO2 SLP181 T02330200 10244 20228 53020
KDCA 171119Z 05011KT 10SM BKN014 OVC055 23/20 A3005 RMK AO2 T02280200
KDCA 171052Z 04012KT 10SM FEW014 OVC055 23/20 A3004 RMK AO2 SLP171 T02280200
KDCA 170952Z 03012KT 10SM SCT016 BKN055 BKN090 23/19 A3003 RMK AO2 SLP167 T02330189

METAR Board
Radar Display
Forecast Discussion
For situational awareness. Not to be used for flight planning purposes.